SWA4224 KMSY-KBNA
Flight info
| Callsign | SWA4224 |
|---|---|
| Flight time | 1h 14m |
| Altitude | 37000 |
| Route | LBY MEI KISTS CHSNE3 |
| Aircraft | B738/M-SDE2E3FGHIRWXY/LB1 |
Departure
| Time | 2026-05-04 03:02 |
|---|---|
| Airport | Louis Armstrong New Orleans International Airport (KMSY) |
Arrival
| Time | 2026-05-04 04:16 |
|---|---|
| Airport | Nashville International Airport (KBNA) |
| Time | Latitude | Longitude | Altitude | Speed | Heading |
|---|---|---|---|---|---|
| 2026-05-04 02:22 | 29.98608 | -90.25449 | 15 ft | 0 kts | 136° |
| 2026-05-04 02:29 | 29.98614 | -90.25455 | 13 ft | 4 kts | 136° |
| 2026-05-04 02:51 | 29.98613 | -90.25454 | 16 ft | 0 kts | 135° |
| 2026-05-04 02:52 | 29.98612 | -90.25454 | 16 ft | 1 kts | 136° |
| 2026-05-04 02:52 | 29.98602 | -90.25468 | 14 ft | 3 kts | 285° |
| 2026-05-04 02:52 | 29.98626 | -90.25480 | 15 ft | 4 kts | 338° |
| 2026-05-04 02:53 | 29.98649 | -90.25480 | 14 ft | 0 kts | 12° |
| 2026-05-04 02:55 | 29.98666 | -90.25473 | 15 ft | 11 kts | 24° |
| 2026-05-04 02:56 | 29.98753 | -90.25401 | 14 ft | 16 kts | 39° |
| 2026-05-04 02:56 | 29.98829 | -90.25364 | 12 ft | 12 kts | 0° |
| 2026-05-04 02:56 | 29.98875 | -90.25429 | 15 ft | 11 kts | 288° |
| 2026-05-04 02:56 | 29.98896 | -90.25515 | 14 ft | 11 kts | 285° |
| 2026-05-04 02:57 | 29.98917 | -90.25598 | 15 ft | 11 kts | 284° |
| 2026-05-04 02:57 | 29.98939 | -90.25691 | 17 ft | 14 kts | 285° |
| 2026-05-04 02:57 | 29.98973 | -90.25829 | 15 ft | 22 kts | 285° |
| 2026-05-04 02:57 | 29.99020 | -90.26023 | 14 ft | 28 kts | 285° |
| 2026-05-04 02:58 | 29.99073 | -90.26240 | 11 ft | 27 kts | 287° |
| 2026-05-04 02:58 | 29.99121 | -90.26446 | 13 ft | 26 kts | 287° |
| 2026-05-04 02:58 | 29.99167 | -90.26635 | 11 ft | 24 kts | 285° |
| 2026-05-04 02:58 | 29.99210 | -90.26816 | 12 ft | 23 kts | 285° |
| 2026-05-04 02:59 | 29.99252 | -90.26988 | 14 ft | 22 kts | 286° |
| 2026-05-04 02:59 | 29.99299 | -90.27171 | 10 ft | 25 kts | 284° |
| 2026-05-04 02:59 | 29.99345 | -90.27374 | 6 ft | 28 kts | 285° |
| 2026-05-04 02:59 | 29.99397 | -90.27592 | 6 ft | 27 kts | 285° |
| 2026-05-04 03:00 | 29.99445 | -90.27795 | 5 ft | 25 kts | 284° |
| 2026-05-04 03:00 | 29.99489 | -90.27985 | 7 ft | 23 kts | 287° |
| 2026-05-04 03:00 | 29.99534 | -90.28144 | 9 ft | 20 kts | 296° |
| 2026-05-04 03:00 | 29.99561 | -90.28177 | 9 ft | 0 kts | 333° |
| 2026-05-04 03:01 | 29.99569 | -90.28180 | 9 ft | 6 kts | 342° |
| 2026-05-04 03:01 | 29.99652 | -90.28150 | 9 ft | 16 kts | 63° |
| 2026-05-04 03:01 | 29.99613 | -90.27952 | 8 ft | 52 kts | 106° |
| 2026-05-04 03:02 | 29.99453 | -90.27300 | 8 ft | 114 kts | 106° |
| 2026-05-04 03:02 | 29.99199 | -90.26236 | 26 ft | 159 kts | 106° |
| 2026-05-04 03:02 | 29.98886 | -90.24970 | 465 ft | 167 kts | 107° |
| 2026-05-04 03:02 | 29.98586 | -90.23635 | 1028 ft | 170 kts | 104° |
| 2026-05-04 03:03 | 29.98311 | -90.22294 | 1673 ft | 176 kts | 101° |
| 2026-05-04 03:03 | 29.98284 | -90.20885 | 2296 ft | 184 kts | 75° |
| 2026-05-04 03:03 | 29.98958 | -90.19568 | 2735 ft | 202 kts | 42° |
| 2026-05-04 03:03 | 30.00146 | -90.18668 | 3246 ft | 211 kts | 28° |
| 2026-05-04 03:04 | 30.01509 | -90.17823 | 3439 ft | 236 kts | 27° |
| 2026-05-04 03:04 | 30.03052 | -90.16880 | 3664 ft | 264 kts | 27° |
| 2026-05-04 03:04 | 30.04714 | -90.15875 | 4319 ft | 271 kts | 27° |
| 2026-05-04 03:04 | 30.06337 | -90.14848 | 5452 ft | 261 kts | 28° |
| 2026-05-04 03:05 | 30.07925 | -90.13820 | 6331 ft | 264 kts | 29° |
| 2026-05-04 03:05 | 30.09558 | -90.12758 | 6952 ft | 273 kts | 29° |
| 2026-05-04 03:05 | 30.11229 | -90.11676 | 7694 ft | 276 kts | 28° |
| 2026-05-04 03:05 | 30.12882 | -90.10597 | 8621 ft | 271 kts | 28° |
| 2026-05-04 03:06 | 30.14532 | -90.09513 | 9381 ft | 276 kts | 28° |
| 2026-05-04 03:06 | 30.16223 | -90.08393 | 9838 ft | 291 kts | 28° |
| 2026-05-04 03:06 | 30.17985 | -90.07230 | 10440 ft | 299 kts | 28° |
| 2026-05-04 03:06 | 30.19858 | -90.05997 | 10592 ft | 322 kts | 28° |
| 2026-05-04 03:07 | 30.21872 | -90.04673 | 10750 ft | 343 kts | 28° |
| 2026-05-04 03:07 | 30.24001 | -90.03275 | 10925 ft | 361 kts | 28° |
| 2026-05-04 03:07 | 30.26223 | -90.01816 | 11385 ft | 369 kts | 28° |
| 2026-05-04 03:07 | 30.28465 | -90.00341 | 11988 ft | 373 kts | 28° |
| 2026-05-04 03:08 | 30.30726 | -89.98848 | 12637 ft | 376 kts | 28° |
| 2026-05-04 03:08 | 30.33003 | -89.97335 | 13263 ft | 380 kts | 28° |
| 2026-05-04 03:08 | 30.35310 | -89.95900 | 13867 ft | 384 kts | 26° |
| 2026-05-04 03:08 | 30.37649 | -89.94383 | 14431 ft | 388 kts | 28° |
| 2026-05-04 03:09 | 30.39997 | -89.92808 | 15052 ft | 391 kts | 28° |
| 2026-05-04 03:09 | 30.42356 | -89.91210 | 15652 ft | 394 kts | 28° |
| 2026-05-04 03:09 | 30.44724 | -89.89598 | 16249 ft | 397 kts | 27° |
| 2026-05-04 03:09 | 30.47170 | -89.88083 | 16846 ft | 400 kts | 24° |
| 2026-05-04 03:10 | 30.49683 | -89.86660 | 17438 ft | 403 kts | 23° |
| 2026-05-04 03:10 | 30.52220 | -89.85263 | 18024 ft | 406 kts | 22° |
| 2026-05-04 03:10 | 30.54777 | -89.83856 | 18567 ft | 409 kts | 22° |
| 2026-05-04 03:10 | 30.57355 | -89.82424 | 19062 ft | 412 kts | 22° |
| 2026-05-04 03:11 | 30.59916 | -89.80988 | 19556 ft | 415 kts | 22° |
| 2026-05-04 03:11 | 30.62521 | -89.79516 | 20048 ft | 418 kts | 22° |
| 2026-05-04 03:11 | 30.65134 | -89.78030 | 20541 ft | 421 kts | 22° |
| 2026-05-04 03:11 | 30.67774 | -89.76525 | 21031 ft | 424 kts | 22° |
| 2026-05-04 03:12 | 30.70427 | -89.75009 | 21508 ft | 427 kts | 22° |
| 2026-05-04 03:12 | 30.73096 | -89.73482 | 21961 ft | 429 kts | 22° |
| 2026-05-04 03:12 | 30.75790 | -89.71940 | 22417 ft | 432 kts | 21° |
| 2026-05-04 03:12 | 30.78499 | -89.70389 | 22853 ft | 435 kts | 21° |
| 2026-05-04 03:13 | 30.81222 | -89.68829 | 23282 ft | 438 kts | 21° |
| 2026-05-04 03:13 | 30.83958 | -89.67261 | 23690 ft | 440 kts | 21° |
| 2026-05-04 03:13 | 30.86712 | -89.65681 | 24028 ft | 443 kts | 21° |
| 2026-05-04 03:13 | 30.89485 | -89.64089 | 24384 ft | 445 kts | 21° |
| 2026-05-04 03:14 | 30.92270 | -89.62489 | 24724 ft | 447 kts | 21° |
| 2026-05-04 03:14 | 30.95027 | -89.60905 | 25043 ft | 450 kts | 21° |
| 2026-05-04 03:14 | 30.97847 | -89.59283 | 25399 ft | 452 kts | 21° |
| 2026-05-04 03:14 | 31.00668 | -89.57660 | 25738 ft | 454 kts | 21° |
| 2026-05-04 03:15 | 31.03507 | -89.56025 | 26066 ft | 456 kts | 21° |
| 2026-05-04 03:15 | 31.06357 | -89.54382 | 26380 ft | 458 kts | 20° |
| 2026-05-04 03:15 | 31.09222 | -89.52730 | 26693 ft | 460 kts | 20° |
| 2026-05-04 03:15 | 31.12103 | -89.51068 | 26999 ft | 462 kts | 20° |
| 2026-05-04 03:16 | 31.14993 | -89.49399 | 27298 ft | 464 kts | 20° |
| 2026-05-04 03:16 | 31.17888 | -89.47726 | 27592 ft | 466 kts | 20° |
| 2026-05-04 03:16 | 31.20797 | -89.46044 | 27877 ft | 468 kts | 20° |
| 2026-05-04 03:16 | 31.23732 | -89.44345 | 28182 ft | 470 kts | 20° |
| 2026-05-04 03:17 | 31.26648 | -89.42655 | 28682 ft | 467 kts | 20° |
| 2026-05-04 03:17 | 31.29546 | -89.40972 | 29228 ft | 463 kts | 20° |
| 2026-05-04 03:17 | 31.32430 | -89.39299 | 29687 ft | 462 kts | 20° |
| 2026-05-04 03:17 | 31.35304 | -89.37632 | 30086 ft | 462 kts | 20° |
| 2026-05-04 03:18 | 31.38149 | -89.35981 | 30444 ft | 461 kts | 19° |
| 2026-05-04 03:18 | 31.41054 | -89.34294 | 30804 ft | 460 kts | 19° |
| 2026-05-04 03:18 | 31.43879 | -89.32671 | 31147 ft | 459 kts | 19° |
| 2026-05-04 03:18 | 31.46767 | -89.31064 | 31470 ft | 458 kts | 18° |
| 2026-05-04 03:19 | 31.49662 | -89.29478 | 31806 ft | 457 kts | 18° |
| 2026-05-04 03:19 | 31.52539 | -89.27908 | 32168 ft | 457 kts | 18° |
| 2026-05-04 03:19 | 31.55407 | -89.26339 | 32548 ft | 455 kts | 18° |
| 2026-05-04 03:19 | 31.58270 | -89.24767 | 32902 ft | 454 kts | 18° |
| 2026-05-04 03:20 | 31.61133 | -89.23191 | 33211 ft | 454 kts | 18° |
| 2026-05-04 03:20 | 31.63996 | -89.21609 | 33524 ft | 454 kts | 18° |
| 2026-05-04 03:20 | 31.66814 | -89.20050 | 33866 ft | 453 kts | 18° |
| 2026-05-04 03:20 | 31.69662 | -89.18472 | 34171 ft | 453 kts | 18° |
| 2026-05-04 03:21 | 31.72516 | -89.16891 | 34414 ft | 453 kts | 18° |
| 2026-05-04 03:21 | 31.75354 | -89.15316 | 34700 ft | 452 kts | 17° |
| 2026-05-04 03:21 | 31.78188 | -89.13743 | 34989 ft | 450 kts | 17° |
| 2026-05-04 03:21 | 31.81026 | -89.12165 | 35287 ft | 449 kts | 17° |
| 2026-05-04 03:22 | 31.83843 | -89.10599 | 35595 ft | 448 kts | 17° |
| 2026-05-04 03:22 | 31.86657 | -89.09033 | 35863 ft | 447 kts | 17° |
| 2026-05-04 03:22 | 31.89470 | -89.07469 | 36096 ft | 447 kts | 17° |
| 2026-05-04 03:22 | 31.92278 | -89.05905 | 36317 ft | 446 kts | 17° |
| 2026-05-04 03:23 | 31.95077 | -89.04346 | 36576 ft | 445 kts | 16° |
| 2026-05-04 03:23 | 31.97874 | -89.02785 | 36832 ft | 444 kts | 16° |
| 2026-05-04 03:23 | 32.00633 | -89.01246 | 37078 ft | 444 kts | 16° |
| 2026-05-04 03:24 | 32.06247 | -88.98113 | 37142 ft | 447 kts | 16° |
| 2026-05-04 03:24 | 32.11841 | -88.94981 | 37143 ft | 444 kts | 16° |
| 2026-05-04 03:25 | 32.17419 | -88.91854 | 37138 ft | 441 kts | 16° |
| 2026-05-04 03:25 | 32.23026 | -88.89156 | 37149 ft | 425 kts | 4° |
| 2026-05-04 03:25 | 32.25905 | -88.88613 | 37152 ft | 414 kts | 355° |
| 2026-05-04 03:26 | 32.28770 | -88.88395 | 37165 ft | 414 kts | 355° |
| 2026-05-04 03:26 | 32.34527 | -88.87973 | 37164 ft | 422 kts | 356° |
| 2026-05-04 03:27 | 32.40430 | -88.87508 | 37123 ft | 426 kts | 356° |
| 2026-05-04 03:27 | 32.46344 | -88.87013 | 37118 ft | 428 kts | 356° |
| 2026-05-04 03:28 | 32.52291 | -88.86504 | 37103 ft | 427 kts | 356° |
| 2026-05-04 03:28 | 32.58220 | -88.85988 | 37127 ft | 427 kts | 356° |
| 2026-05-04 03:29 | 32.64131 | -88.85484 | 37153 ft | 426 kts | 356° |
| 2026-05-04 03:29 | 32.69987 | -88.84993 | 37168 ft | 423 kts | 356° |
| 2026-05-04 03:30 | 32.75843 | -88.84496 | 37167 ft | 421 kts | 356° |
| 2026-05-04 03:30 | 32.81674 | -88.83994 | 37172 ft | 420 kts | 357° |
| 2026-05-04 03:31 | 32.87491 | -88.83481 | 37180 ft | 419 kts | 356° |
| 2026-05-04 03:31 | 32.93272 | -88.82994 | 37160 ft | 419 kts | 356° |
| 2026-05-04 03:32 | 32.99094 | -88.82506 | 37131 ft | 420 kts | 357° |
| 2026-05-04 03:32 | 33.04922 | -88.82010 | 37076 ft | 421 kts | 357° |
| 2026-05-04 03:33 | 33.10774 | -88.81507 | 37084 ft | 422 kts | 357° |
| 2026-05-04 03:33 | 33.16629 | -88.81003 | 37135 ft | 423 kts | 357° |
| 2026-05-04 03:34 | 33.22523 | -88.80495 | 37121 ft | 424 kts | 357° |
| 2026-05-04 03:34 | 33.28375 | -88.79989 | 37122 ft | 425 kts | 357° |
| 2026-05-04 03:35 | 33.34284 | -88.79478 | 37135 ft | 425 kts | 357° |
| 2026-05-04 03:35 | 33.40190 | -88.78967 | 37125 ft | 426 kts | 357° |
| 2026-05-04 03:36 | 33.46090 | -88.78455 | 37134 ft | 425 kts | 357° |
| 2026-05-04 03:36 | 33.51992 | -88.77943 | 37130 ft | 425 kts | 357° |
| 2026-05-04 03:37 | 33.57853 | -88.77433 | 37127 ft | 425 kts | 357° |
| 2026-05-04 03:37 | 33.63754 | -88.76920 | 37128 ft | 425 kts | 357° |
| 2026-05-04 03:38 | 33.69647 | -88.76406 | 37130 ft | 425 kts | 357° |
| 2026-05-04 03:38 | 33.75543 | -88.75892 | 37123 ft | 425 kts | 357° |
| 2026-05-04 03:39 | 33.81437 | -88.75377 | 37116 ft | 425 kts | 357° |
| 2026-05-04 03:39 | 33.87281 | -88.74867 | 37119 ft | 424 kts | 357° |
| 2026-05-04 03:40 | 33.93175 | -88.74353 | 37113 ft | 424 kts | 357° |
| 2026-05-04 03:40 | 33.99069 | -88.73834 | 37120 ft | 425 kts | 357° |
| 2026-05-04 03:41 | 34.04954 | -88.73316 | 37112 ft | 424 kts | 357° |
| 2026-05-04 03:41 | 34.10813 | -88.72801 | 37118 ft | 424 kts | 357° |
| 2026-05-04 03:42 | 34.16702 | -88.72282 | 37120 ft | 425 kts | 357° |
| 2026-05-04 03:42 | 34.22601 | -88.71761 | 37137 ft | 425 kts | 357° |
| 2026-05-04 03:43 | 34.28502 | -88.71240 | 37125 ft | 426 kts | 357° |
| 2026-05-04 03:43 | 34.34418 | -88.70716 | 37118 ft | 426 kts | 357° |
| 2026-05-04 03:44 | 34.40298 | -88.70195 | 37125 ft | 426 kts | 357° |
| 2026-05-04 03:44 | 34.46219 | -88.69669 | 37098 ft | 427 kts | 357° |
| 2026-05-04 03:45 | 34.52146 | -88.69143 | 37102 ft | 427 kts | 357° |
| 2026-05-04 03:45 | 34.58076 | -88.68621 | 37097 ft | 427 kts | 357° |
| 2026-05-04 03:46 | 34.64009 | -88.68086 | 37096 ft | 427 kts | 357° |
| 2026-05-04 03:46 | 34.69893 | -88.67561 | 37096 ft | 427 kts | 356° |
| 2026-05-04 03:47 | 34.75815 | -88.67037 | 37102 ft | 427 kts | 356° |
| 2026-05-04 03:47 | 34.81704 | -88.66414 | 37092 ft | 432 kts | 3° |
| 2026-05-04 03:47 | 34.84529 | -88.65427 | 37105 ft | 444 kts | 14° |
| 2026-05-04 03:48 | 34.87319 | -88.63726 | 37101 ft | 454 kts | 24° |
| 2026-05-04 03:48 | 34.92283 | -88.58747 | 37112 ft | 465 kts | 34° |
| 2026-05-04 03:49 | 34.97047 | -88.53495 | 37098 ft | 465 kts | 34° |
| 2026-05-04 03:49 | 35.01885 | -88.48276 | 37101 ft | 465 kts | 33° |
| 2026-05-04 03:50 | 35.06739 | -88.43083 | 37022 ft | 466 kts | 33° |
| 2026-05-04 03:50 | 35.09197 | -88.40456 | 36507 ft | 468 kts | 33° |
| 2026-05-04 03:50 | 35.11635 | -88.37845 | 35913 ft | 466 kts | 33° |
| 2026-05-04 03:50 | 35.14072 | -88.35234 | 35253 ft | 466 kts | 33° |
| 2026-05-04 03:51 | 35.16507 | -88.32625 | 34623 ft | 466 kts | 34° |
| 2026-05-04 03:51 | 35.18938 | -88.30016 | 33947 ft | 466 kts | 34° |
| 2026-05-04 03:51 | 35.21348 | -88.27429 | 33206 ft | 467 kts | 34° |
| 2026-05-04 03:51 | 35.23819 | -88.24775 | 32517 ft | 467 kts | 34° |
| 2026-05-04 03:52 | 35.26225 | -88.22187 | 31777 ft | 467 kts | 34° |
| 2026-05-04 03:52 | 35.28671 | -88.19558 | 31039 ft | 469 kts | 34° |
| 2026-05-04 03:52 | 35.31119 | -88.16920 | 30285 ft | 470 kts | 34° |
| 2026-05-04 03:52 | 35.33578 | -88.14266 | 29387 ft | 470 kts | 35° |
| 2026-05-04 03:53 | 35.36026 | -88.11623 | 28500 ft | 471 kts | 35° |
| 2026-05-04 03:53 | 35.38501 | -88.08952 | 27641 ft | 477 kts | 36° |
| 2026-05-04 03:53 | 35.40984 | -88.06269 | 27016 ft | 472 kts | 36° |
| 2026-05-04 03:53 | 35.43428 | -88.03621 | 26377 ft | 467 kts | 36° |
| 2026-05-04 03:54 | 35.45851 | -88.00993 | 25768 ft | 462 kts | 36° |
| 2026-05-04 03:54 | 35.48213 | -87.98431 | 25168 ft | 457 kts | 36° |
| 2026-05-04 03:54 | 35.50583 | -87.95860 | 24578 ft | 453 kts | 36° |
| 2026-05-04 03:54 | 35.52925 | -87.93317 | 23967 ft | 450 kts | 36° |
| 2026-05-04 03:55 | 35.55271 | -87.90770 | 23297 ft | 447 kts | 36° |
| 2026-05-04 03:55 | 35.57591 | -87.88249 | 22628 ft | 443 kts | 37° |
| 2026-05-04 03:55 | 35.59881 | -87.85756 | 22029 ft | 438 kts | 37° |
| 2026-05-04 03:55 | 35.62145 | -87.83291 | 21422 ft | 433 kts | 37° |
| 2026-05-04 03:56 | 35.64359 | -87.80878 | 20833 ft | 428 kts | 37° |
| 2026-05-04 03:56 | 35.66561 | -87.78476 | 20256 ft | 424 kts | 37° |
| 2026-05-04 03:56 | 35.68771 | -87.76064 | 19676 ft | 421 kts | 37° |
| 2026-05-04 03:56 | 35.70927 | -87.73707 | 19510 ft | 407 kts | 37° |
| 2026-05-04 03:57 | 35.73012 | -87.71426 | 19323 ft | 394 kts | 37° |
| 2026-05-04 03:57 | 35.75028 | -87.69211 | 19179 ft | 384 kts | 39° |
| 2026-05-04 03:57 | 35.76675 | -87.66657 | 18900 ft | 386 kts | 59° |
| 2026-05-04 03:57 | 35.77692 | -87.63605 | 18606 ft | 384 kts | 66° |
| 2026-05-04 03:58 | 35.79515 | -87.57484 | 17849 ft | 382 kts | 66° |
| 2026-05-04 03:58 | 35.80446 | -87.54416 | 17415 ft | 382 kts | 66° |
| 2026-05-04 03:58 | 35.81381 | -87.51381 | 17058 ft | 379 kts | 66° |
| 2026-05-04 03:59 | 35.82318 | -87.48354 | 16699 ft | 376 kts | 66° |
| 2026-05-04 03:59 | 35.83274 | -87.45376 | 16353 ft | 372 kts | 64° |
| 2026-05-04 03:59 | 35.84290 | -87.42457 | 16012 ft | 369 kts | 63° |
| 2026-05-04 03:59 | 35.85319 | -87.39587 | 15689 ft | 366 kts | 62° |
| 2026-05-04 04:00 | 35.86335 | -87.36758 | 15363 ft | 364 kts | 62° |
| 2026-05-04 04:00 | 35.87363 | -87.33877 | 15030 ft | 361 kts | 63° |
| 2026-05-04 04:00 | 35.88354 | -87.31081 | 14711 ft | 359 kts | 62° |
| 2026-05-04 04:00 | 35.89347 | -87.28269 | 14391 ft | 357 kts | 62° |
| 2026-05-04 04:01 | 35.90333 | -87.25465 | 14066 ft | 356 kts | 62° |
| 2026-05-04 04:01 | 35.91313 | -87.22672 | 13726 ft | 354 kts | 62° |
| 2026-05-04 04:01 | 35.92286 | -87.19890 | 13370 ft | 352 kts | 63° |
| 2026-05-04 04:01 | 35.93251 | -87.17129 | 13035 ft | 350 kts | 63° |
| 2026-05-04 04:02 | 35.94210 | -87.14385 | 12709 ft | 347 kts | 63° |
| 2026-05-04 04:02 | 35.95163 | -87.11653 | 12395 ft | 345 kts | 63° |
| 2026-05-04 04:02 | 35.96110 | -87.08937 | 12079 ft | 343 kts | 63° |
| 2026-05-04 04:02 | 35.97047 | -87.06246 | 11768 ft | 341 kts | 63° |
| 2026-05-04 04:03 | 35.97983 | -87.03559 | 11460 ft | 340 kts | 63° |
| 2026-05-04 04:03 | 35.98901 | -87.00919 | 11155 ft | 337 kts | 63° |
| 2026-05-04 04:03 | 35.99820 | -86.98274 | 10841 ft | 333 kts | 63° |
| 2026-05-04 04:03 | 36.00727 | -86.95656 | 10542 ft | 329 kts | 63° |
| 2026-05-04 04:04 | 36.01621 | -86.93078 | 10242 ft | 323 kts | 63° |
| 2026-05-04 04:04 | 36.02491 | -86.90566 | 9940 ft | 313 kts | 63° |
| 2026-05-04 04:04 | 36.03313 | -86.88185 | 10023 ft | 289 kts | 63° |
| 2026-05-04 04:04 | 36.04076 | -86.85971 | 9882 ft | 270 kts | 62° |
| 2026-05-04 04:05 | 36.04782 | -86.83922 | 9750 ft | 249 kts | 62° |
| 2026-05-04 04:05 | 36.05672 | -86.82232 | 9602 ft | 222 kts | 33° |
| 2026-05-04 04:05 | 36.06909 | -86.81306 | 9488 ft | 197 kts | 16° |
| 2026-05-04 04:05 | 36.08160 | -86.80776 | 9211 ft | 187 kts | 11° |
| 2026-05-04 04:06 | 36.09405 | -86.80313 | 8808 ft | 187 kts | 11° |
| 2026-05-04 04:06 | 36.10639 | -86.79850 | 8523 ft | 181 kts | 11° |
| 2026-05-04 04:06 | 36.11821 | -86.79395 | 8399 ft | 181 kts | 13° |
| 2026-05-04 04:06 | 36.13035 | -86.78904 | 8286 ft | 186 kts | 11° |
| 2026-05-04 04:07 | 36.14293 | -86.78424 | 8161 ft | 192 kts | 11° |
| 2026-05-04 04:07 | 36.15576 | -86.77933 | 8002 ft | 193 kts | 11° |
| 2026-05-04 04:07 | 36.16862 | -86.77439 | 7756 ft | 193 kts | 12° |
| 2026-05-04 04:07 | 36.18135 | -86.76945 | 7540 ft | 190 kts | 12° |
| 2026-05-04 04:08 | 36.19387 | -86.76456 | 7320 ft | 188 kts | 12° |
| 2026-05-04 04:08 | 36.20209 | -86.76135 | 7179 ft | 187 kts | 12° |
| 2026-05-04 04:08 | 36.21859 | -86.75491 | 6864 ft | 188 kts | 11° |
| 2026-05-04 04:08 | 36.23106 | -86.75004 | 6653 ft | 188 kts | 11° |
| 2026-05-04 04:09 | 36.24344 | -86.74520 | 6435 ft | 187 kts | 11° |
| 2026-05-04 04:09 | 36.25592 | -86.74031 | 6196 ft | 187 kts | 11° |
| 2026-05-04 04:09 | 36.26838 | -86.73543 | 5974 ft | 188 kts | 11° |
| 2026-05-04 04:09 | 36.28085 | -86.73054 | 5742 ft | 188 kts | 11° |
| 2026-05-04 04:10 | 36.29329 | -86.72532 | 5520 ft | 190 kts | 16° |
| 2026-05-04 04:10 | 36.30471 | -86.71647 | 5313 ft | 198 kts | 38° |
| 2026-05-04 04:10 | 36.31342 | -86.70306 | 5073 ft | 203 kts | 56° |
| 2026-05-04 04:10 | 36.31891 | -86.68709 | 4843 ft | 205 kts | 74° |
| 2026-05-04 04:11 | 36.32082 | -86.66966 | 4593 ft | 204 kts | 91° |
| 2026-05-04 04:11 | 36.31865 | -86.65253 | 4341 ft | 200 kts | 111° |
| 2026-05-04 04:11 | 36.31285 | -86.63728 | 4133 ft | 195 kts | 129° |
| 2026-05-04 04:11 | 36.30425 | -86.62464 | 3907 ft | 188 kts | 145° |
| 2026-05-04 04:12 | 36.29382 | -86.61548 | 3688 ft | 180 kts | 160° |
| 2026-05-04 04:12 | 36.28240 | -86.60997 | 3487 ft | 172 kts | 174° |
| 2026-05-04 04:12 | 36.27096 | -86.60797 | 3280 ft | 162 kts | 186° |
| 2026-05-04 04:12 | 36.26021 | -86.60904 | 3085 ft | 150 kts | 198° |
| 2026-05-04 04:13 | 36.25056 | -86.61218 | 2912 ft | 144 kts | 203° |
| 2026-05-04 04:13 | 36.24113 | -86.61606 | 2759 ft | 142 kts | 203° |
| 2026-05-04 04:13 | 36.23218 | -86.61975 | 2624 ft | 134 kts | 203° |
| 2026-05-04 04:13 | 36.22345 | -86.62329 | 2449 ft | 136 kts | 202° |
| 2026-05-04 04:14 | 36.21437 | -86.62693 | 2252 ft | 138 kts | 201° |
| 2026-05-04 04:14 | 36.20542 | -86.63050 | 2098 ft | 132 kts | 202° |
| 2026-05-04 04:14 | 36.19677 | -86.63396 | 1866 ft | 130 kts | 201° |
| 2026-05-04 04:14 | 36.18816 | -86.63749 | 1713 ft | 132 kts | 201° |
| 2026-05-04 04:15 | 36.17946 | -86.64091 | 1485 ft | 139 kts | 199° |
| 2026-05-04 04:15 | 36.17014 | -86.64462 | 1311 ft | 146 kts | 198° |
| 2026-05-04 04:15 | 36.16023 | -86.64860 | 1115 ft | 152 kts | 197° |
| 2026-05-04 04:15 | 36.15048 | -86.65256 | 954 ft | 147 kts | 196° |
| 2026-05-04 04:16 | 36.14079 | -86.65642 | 748 ft | 146 kts | 196° |
| 2026-05-04 04:16 | 36.13200 | -86.65992 | 576 ft | 137 kts | 197° |
| 2026-05-04 04:16 | 36.12425 | -86.66303 | 580 ft | 89 kts | 198° |
| 2026-05-04 04:16 | 36.12039 | -86.66457 | 584 ft | 37 kts | 197° |
| 2026-05-04 04:17 | 36.11808 | -86.66563 | 592 ft | 33 kts | 190° |
| 2026-05-04 04:17 | 36.11658 | -86.66660 | 599 ft | 19 kts | 248° |
| 2026-05-04 04:17 | 36.11686 | -86.66733 | 595 ft | 7 kts | 353° |
| 2026-05-04 04:17 | 36.11746 | -86.66718 | 592 ft | 11 kts | 17° |
| 2026-05-04 04:18 | 36.11833 | -86.66685 | 586 ft | 16 kts | 18° |
| 2026-05-04 04:18 | 36.11950 | -86.66637 | 580 ft | 20 kts | 18° |
| 2026-05-04 04:18 | 36.12089 | -86.66581 | 577 ft | 22 kts | 18° |
| 2026-05-04 04:18 | 36.12230 | -86.66525 | 576 ft | 21 kts | 15° |
| 2026-05-04 04:19 | 36.12310 | -86.66658 | 572 ft | 22 kts | 290° |
| 2026-05-04 04:19 | 36.12369 | -86.66842 | 563 ft | 23 kts | 305° |
| 2026-05-04 04:19 | 36.12486 | -86.66948 | 566 ft | 21 kts | 24° |
| 2026-05-04 04:19 | 36.12617 | -86.66877 | 569 ft | 20 kts | 352° |
| 2026-05-04 04:20 | 36.12714 | -86.66953 | 569 ft | 11 kts | 22° |
| 2026-05-04 04:20 | 36.12732 | -86.66943 | 570 ft | 0 kts | 20° |